Dades meteomassalio
Diari Summary for Febrer 14, 2017 Units:  English    Metric   Both
« Previous Day
Next Day »
Diari Semanal Mensual Anual Personalitzat
  Maxima: Minima: Mijana:
Temperatura: TemperatureC °F 3.6 °F 9.4 °F
Rosada: DewpointC °F 2.6 °F 6 °F
Humitat: Humidity % 57 % 81 %
Velocitat del vent: WindSpeedKMH mph 0.0 mph 2.2 mph
Racha vent: WindSpeedGustKMH mph - -
Vent:- - East
Pressio: PressurehPa in 1016.1 in -
Pluja: 0.5 in    
Historical Graphs
 
 
Tabular Data for Febrer 14, 2017
Time Temperature Dew Point Pressure Wind Wind Speed Wind Gust Humidity Rainfall Rate (Hourly) solar Conditions
TemperatureC °F DewpointC °F PressurehPa in Calm     Humidity % HourlyPrecipMM in SolarRadiationWatts/m^2 W/m2 Conditions
00:04 9.1 °F 8.2 °F 1016.1 in West 5.6 mph 5.6 mph 94 % 0.0 in 0.0 W/m2 RA
00:09 9.3 °F 8.2 °F 1016.5 in WSW 8.0 mph 8.0 mph 93 % 0.0 in 0.0 W/m2 CLR
00:14 9.3 °F 8.3 °F 1016.5 in WSW 5.6 mph 5.6 mph 93 % 0.0 in 0.0 W/m2 CLR
00:19 9.4 °F 8.2 °F 1016.5 in SW 7.4 mph 7.4 mph 92 % 0.0 in 0.0 W/m2 CLR
00:24 9.3 °F 8.1 °F 1016.5 in Calm     92 % 0.0 in 0.0 W/m2 CLR
00:29 9.1 °F 7.7 °F 1016.5 in Calm     91 % 0.0 in 0.0 W/m2 CLR
00:34 8.8 °F 7.4 °F 1016.5 in Calm     91 % 0.0 in 0.0 W/m2 CLR
00:39 8.7 °F 7.3 °F 1016.5 in Calm     91 % 0.0 in 0.0 W/m2 CLR
00:44 8.6 °F 7.3 °F 1016.8 in Calm     92 % 0.0 in 0.0 W/m2 CLR
00:49 8.5 °F 7.3 °F 1016.8 in Calm     92 % 0.0 in 0.0 W/m2 CLR
00:54 8.4 °F 7.2 °F 1016.8 in Calm     92 % 0.0 in 0.0 W/m2 CLR
00:59 8.4 °F 7.2 °F 1016.8 in Calm     92 % 0.0 in 0.0 W/m2 CLR
01:04 8.4 °F 7.2 °F 1016.8 in Calm     92 % 0.0 in 0.0 W/m2 CLR
01:09 8.3 °F 6.9 °F 1016.8 in Calm     91 % 0.0 in 0.0 W/m2 CLR
01:14 8.1 °F 6.8 °F 1016.8 in Calm     92 % 0.0 in 0.0 W/m2 CLR
01:19 8.1 °F 6.8 °F 1017.2 in Calm     92 % 0.0 in 0.0 W/m2 CLR
01:24 8.1 °F 6.9 °F 1017.2 in Calm     92 % 0.0 in 0.0 W/m2 CLR
01:29 8.0 °F 6.6 °F 1017.2 in Calm     91 % 0.0 in 0.0 W/m2 CLR
01:34 7.8 °F 6.4 °F 1017.2 in Calm     91 % 0.0 in 0.0 W/m2 CLR
01:44 7.4 °F 6.2 °F 1017.2 in SW 7.4 mph 7.4 mph 92 % 0.0 in 0.0 W/m2 CLR
01:49 7.3 °F 6.1 °F 1017.2 in Calm   2.1 mph 92 % 0.0 in 0.0 W/m2 CLR
01:54 7.3 °F 6.1 °F 1017.2 in SW 7.4 mph 7.4 mph 92 % 0.0 in 0.0 W/m2 CLR
01:59 7.3 °F 6.1 °F 1017.2 in Calm     92 % 0.0 in 0.0 W/m2 CLR
02:04 7.4 °F 6.2 °F 1017.5 in Calm     92 % 0.0 in 0.0 W/m2 CLR
02:09 7.4 °F 6.1 °F 1017.5 in Calm     91 % 0.0 in 0.0 W/m2 CLR
02:14 7.4 °F 6.1 °F 1017.5 in Calm     91 % 0.0 in 0.0 W/m2 CLR
02:19 7.4 °F 6.0 °F 1017.8 in Calm     91 % 0.0 in 0.0 W/m2 CLR
02:24 7.3 °F 5.9 °F 1017.8 in Calm     91 % 0.0 in 0.0 W/m2 CLR
02:29 7.3 °F 5.9 °F 1017.8 in Calm     91 % 0.0 in 0.0 W/m2 CLR
02:34 7.2 °F 5.8 °F 1017.8 in Calm     91 % 0.0 in 0.0 W/m2 CLR
02:39 7.1 °F 5.7 °F 1017.8 in Calm     91 % 0.0 in 0.0 W/m2 CLR
02:44 7.0 °F 5.6 °F 1017.8 in Calm     91 % 0.0 in 0.0 W/m2 CLR
02:49 6.9 °F 5.5 °F 1017.8 in Calm     91 % 0.0 in 0.0 W/m2 CLR
02:54 6.8 °F 5.4 °F 1018.2 in Calm     91 % 0.0 in 0.0 W/m2 CLR
02:59 6.7 °F 5.3 °F 1018.2 in Calm     91 % 0.0 in 0.0 W/m2 CLR
03:04 6.7 °F 5.5 °F 1018.2 in Calm     92 % 0.0 in 0.0 W/m2 CLR
03:09 6.7 °F 5.3 °F 1018.2 in Calm     91 % 0.0 in 0.0 W/m2 CLR
03:14 6.5 °F 5.1 °F 1018.2 in Calm     91 % 0.0 in 0.0 W/m2 CLR
03:15 6.4 °F 5.1 °F 1018.2 in Calm     91 % 0.0 in 0.0 W/m2 CLR
03:20 6.4 °F 5.2 °F 1018.5 in Calm     92 % 0.0 in 0.0 W/m2 CLR
03:25 6.3 °F 5.1 °F 1018.5 in Calm     92 % 0.0 in 0.0 W/m2 CLR
03:30 6.4 °F 5.2 °F 1018.5 in Calm     92 % 0.0 in 0.0 W/m2 CLR
03:35 6.4 °F 5.2 °F 1018.5 in Calm     92 % 0.0 in 0.0 W/m2 CLR
03:40 6.3 °F 5.1 °F 1018.5 in Calm     92 % 0.0 in 0.0 W/m2 CLR
03:45 6.1 °F 4.9 °F 1018.5 in Calm     92 % 0.0 in 0.0 W/m2 CLR
03:50 6.1 °F 4.9 °F 1018.5 in Calm     92 % 0.0 in 0.0 W/m2 CLR
03:55 6.1 °F 4.8 °F 1018.5 in Calm     92 % 0.0 in 0.0 W/m2 CLR
04:00 5.9 °F 4.7 °F 1018.8 in Calm     92 % 0.0 in 0.0 W/m2 CLR
04:05 5.8 °F 4.6 °F 1018.8 in Calm     92 % 0.0 in 0.0 W/m2 CLR
04:10 5.7 °F 4.4 °F 1018.8 in Calm     92 % 0.0 in 0.0 W/m2 CLR
04:15 5.7 °F 4.4 °F 1018.8 in Calm     92 % 0.0 in 0.0 W/m2 CLR
04:20 5.6 °F 4.4 °F 1018.8 in Calm     92 % 0.0 in 0.0 W/m2 CLR
04:25 5.5 °F 4.3 °F 1019.2 in Calm     92 % 0.0 in 0.0 W/m2 CLR
04:30 5.4 °F 4.4 °F 1019.2 in Calm     93 % 0.0 in 0.0 W/m2 CLR
04:35 5.4 °F 4.4 °F 1019.2 in Calm     93 % 0.0 in 0.0 W/m2 CLR
04:40 5.4 °F 4.3 °F 1019.2 in Calm     93 % 0.0 in 0.0 W/m2 CLR
04:45 5.3 °F 4.1 °F 1019.2 in Calm     92 % 0.0 in 0.0 W/m2 CLR
04:50 5.2 °F 4.1 °F 1019.5 in Calm     93 % 0.5 in 0.0 W/m2 RA
04:55 5.1 °F 4.1 °F 1019.5 in Calm     93 % 0.5 in 0.0 W/m2 CLR
05:00 5.0 °F 3.9 °F 1019.5 in WSW 3.7 mph 3.7 mph 93 % 0.5 in 0.0 W/m2 CLR
05:05 5.4 °F 4.3 °F 1019.5 in WSW 7.4 mph 7.4 mph 93 % 0.5 in 0.0 W/m2 CLR
05:10 5.8 °F 4.9 °F 1019.9 in Calm     94 % 0.5 in 0.0 W/m2 CLR
05:15 5.7 °F 4.7 °F 1019.9 in Calm     93 % 0.5 in 0.0 W/m2 CLR
05:20 5.4 °F 4.2 °F 1019.9 in Calm     92 % 0.5 in 0.0 W/m2 CLR
05:25 5.1 °F 3.9 °F 1020.2 in Calm     92 % 0.5 in 0.0 W/m2 CLR
05:30 4.9 °F 3.7 °F 1020.2 in Calm     92 % 0.5 in 0.0 W/m2 CLR
05:35 4.8 °F 3.6 °F 1020.2 in Calm     92 % 0.5 in 0.0 W/m2 CLR
05:40 4.7 °F 3.7 °F 1020.5 in Calm     93 % 0.5 in 0.0 W/m2 CLR
05:45 4.6 °F 3.4 °F 1020.5 in Calm     92 % 0.5 in 0.0 W/m2 CLR
05:50 4.6 °F 3.5 °F 1020.5 in Calm     93 % 0.0 in 0.0 W/m2 CLR
05:55 4.5 °F 3.4 °F 1020.5 in Calm     93 % 0.0 in 0.0 W/m2 CLR
06:00 4.4 °F 3.4 °F 1020.5 in Calm     93 % 0.0 in 0.0 W/m2 CLR
06:05 4.4 °F 3.4 °F 1020.9 in Calm     93 % 0.0 in 0.0 W/m2 CLR
06:10 4.5 °F 3.4 °F 1020.9 in Calm     93 % 0.0 in 0.0 W/m2 CLR
06:15 4.2 °F 3.1 °F 1020.9 in Calm     92 % 0.0 in 0.0 W/m2 CLR
06:20 4.1 °F 3.1 °F 1020.9 in Calm     93 % 0.0 in 0.0 W/m2 CLR
06:25 4.2 °F 3.1 °F 1021.2 in Calm     93 % 0.0 in 0.0 W/m2 CLR
06:30 4.2 °F 3.1 °F 1021.2 in Calm     93 % 0.0 in 0.0 W/m2 CLR
06:35 4.3 °F 3.2 °F 1021.2 in Calm     93 % 0.0 in 0.0 W/m2 CLR
06:40 4.3 °F 3.3 °F 1021.2 in Calm     93 % 0.0 in 0.0 W/m2 CLR
06:45 4.3 °F 3.2 °F 1021.2 in Calm     93 % 0.0 in 0.0 W/m2 CLR
06:50 4.0 °F 2.9 °F 1021.6 in Calm     93 % 0.0 in 0.0 W/m2 CLR
06:55 3.8 °F 2.8 °F 1021.6 in Calm     93 % 0.0 in 0.0 W/m2 CLR
07:00 3.9 °F 2.9 °F 1021.6 in Calm     93 % 0.0 in 0.0 W/m2 CLR
07:05 4.1 °F 3.0 °F 1021.6 in Calm     93 % 0.0 in 0.0 W/m2 CLR
07:10 4.1 °F 3.0 °F 1021.6 in Calm     93 % 0.0 in 0.0 W/m2 CLR
07:15 4.0 °F 2.9 °F 1021.9 in Calm     93 % 0.0 in 0.0 W/m2 CLR
07:20 4.0 °F 2.9 °F 1021.9 in Calm     93 % 0.0 in 0.0 W/m2 CLR
07:25 4.0 °F 2.9 °F 1021.9 in Calm     93 % 0.0 in 0.0 W/m2 CLR
07:30 4.1 °F 3.0 °F 1021.9 in Calm     93 % 0.0 in 0.0 W/m2 CLR
07:35 4.1 °F 3.1 °F 1022.2 in Calm     93 % 0.0 in 0.0 W/m2 CLR
07:40 4.0 °F 2.9 °F 1022.2 in Calm     93 % 0.0 in 0.0 W/m2 CLR
07:45 3.8 °F 2.8 °F 1022.2 in Calm     93 % 0.0 in 0.0 W/m2 OVC
07:50 3.7 °F 2.7 °F 1022.2 in Calm     93 % 0.0 in 0.0 W/m2 OVC
07:55 3.7 °F 2.7 °F 1022.6 in Calm     93 % 0.0 in 0.0 W/m2 OVC
08:00 3.6 °F 2.6 °F 1022.6 in Calm     93 % 0.0 in 7.0 W/m2 BKN
08:05 3.6 °F 2.6 °F 1022.6 in Calm     93 % 0.0 in 9.0 W/m2 BKN
08:10 3.6 °F 2.6 °F 1022.6 in Calm     93 % 0.0 in 11.0 W/m2 BKN
08:15 3.7 °F 2.7 °F 1022.9 in Calm     93 % 0.0 in 12.0 W/m2 BKN
08:20 3.9 °F 2.9 °F 1022.9 in Calm     93 % 0.0 in 19.0 W/m2 BKN
08:25 4.2 °F 3.3 °F 1022.9 in Calm     94 % 0.0 in 26.0 W/m2 BKN
08:30 3.9 °F 2.8 °F 1022.9 in Calm     93 % 0.0 in 37.0 W/m2 BKN
08:35 3.9 °F 2.9 °F 1023.2 in Calm     93 % 0.0 in 42.0 W/m2 BKN
08:40 4.2 °F 3.1 °F 1023.2 in Calm     93 % 0.0 in 62.0 W/m2 SCT
08:45 4.4 °F 3.5 °F 1023.2 in Calm     94 % 0.0 in 74.0 W/m2 FEW
08:50 4.7 °F 3.8 °F 1023.2 in Calm     94 % 0.0 in 84.0 W/m2 FEW
08:55 4.9 °F 4.1 °F 1023.6 in Calm     94 % 0.0 in 100.0 W/m2 CLR
09:00 5.1 °F 4.1 °F 1023.6 in Calm     93 % 0.0 in 116.0 W/m2 CLR
09:05 5.1 °F 4.1 °F 1023.6 in Calm     93 % 0.0 in 134.0 W/m2 CLR
09:10 5.3 °F 4.2 °F 1023.6 in Calm     93 % 0.0 in 148.0 W/m2 CLR
09:15 5.7 °F 4.8 °F 1023.6 in Calm     94 % 0.0 in 128.0 W/m2 CLR
09:20 5.9 °F 4.9 °F 1023.6 in Calm     93 % 0.0 in 116.0 W/m2 CLR
09:25 6.3 °F 5.3 °F 1023.6 in Calm     93 % 0.0 in 171.0 W/m2 CLR
09:30 6.6 °F 5.6 °F 1023.6 in Calm     93 % 0.0 in 190.0 W/m2 CLR
09:35 7.0 °F 5.9 °F 1023.6 in Calm     93 % 0.0 in 227.0 W/m2 CLR
09:40 7.1 °F 5.9 °F 1023.6 in Calm     92 % 0.0 in 241.0 W/m2 CLR
09:45 7.3 °F 6.1 °F 1023.6 in Calm     92 % 0.0 in 255.0 W/m2 CLR
09:51 7.8 °F 6.6 °F 1023.6 in Calm     92 % 0.0 in 271.0 W/m2 CLR
09:56 8.4 °F 7.2 °F 1023.6 in Calm     92 % 0.0 in 283.0 W/m2 CLR
10:01 8.8 °F 7.4 °F 1023.6 in Calm     91 % 0.0 in 297.0 W/m2 CLR
10:06 9.2 °F 7.7 °F 1023.6 in Calm     90 % 0.0 in 308.0 W/m2 CLR
10:11 9.5 °F 7.8 °F 1023.6 in Calm     89 % 0.0 in 322.0 W/m2 CLR
10:16 9.7 °F 7.6 °F 1023.6 in Calm     87 % 0.0 in 332.0 W/m2 CLR
10:21 9.8 °F 7.7 °F 1023.9 in Calm     87 % 0.0 in 345.0 W/m2 CLR
10:26 10.0 °F 7.8 °F 1023.6 in Calm     86 % 0.0 in 357.0 W/m2 CLR
10:31 10.2 °F 7.8 °F 1023.9 in Calm     85 % 0.0 in 369.0 W/m2 CLR
10:36 10.5 °F 7.9 °F 1023.6 in Calm     84 % 0.0 in 383.0 W/m2 CLR
10:41 10.8 °F 8.2 °F 1023.9 in Calm     84 % 0.0 in 399.0 W/m2 CLR
10:46 10.9 °F 8.0 °F 1023.9 in Calm     82 % 0.0 in 413.0 W/m2 CLR
10:51 11.2 °F 8.2 °F 1023.9 in Calm     82 % 0.0 in 424.0 W/m2 CLR
10:56 11.6 °F 8.4 °F 1023.9 in ESE 5.6 mph 5.6 mph 81 % 0.0 in 434.0 W/m2 CLR
11:01 11.8 °F 8.3 °F 1023.9 in East 3.7 mph 3.7 mph 79 % 0.0 in 445.0 W/m2 CLR
11:06 11.9 °F 8.2 °F 1023.9 in Calm     78 % 0.0 in 454.0 W/m2 CLR
11:11 12.2 °F 8.3 °F 1023.9 in Calm     77 % 0.0 in 464.0 W/m2 CLR
11:16 12.6 °F 8.4 °F 1024.3 in Calm     76 % 0.0 in 473.0 W/m2 CLR
11:21 12.8 °F 8.3 °F 1024.3 in Calm     74 % 0.0 in 483.0 W/m2 CLR
11:26 13.1 °F 7.8 °F 1024.3 in Calm     70 % 0.0 in 492.0 W/m2 CLR
11:31 13.3 °F 7.8 °F 1024.3 in Calm     69 % 0.0 in 499.0 W/m2 CLR
11:36 13.7 °F 8.7 °F 1024.3 in Calm     72 % 0.0 in 510.0 W/m2 CLR
11:41 13.8 °F 7.1 °F 1024.3 in Calm     64 % 0.0 in 519.0 W/m2 CLR
11:46 13.9 °F 6.7 °F 1024.3 in Calm     62 % 0.0 in 526.0 W/m2 CLR
11:51 13.8 °F 6.6 °F 1024.3 in NNE 5.6 mph 5.6 mph 62 % 0.0 in 531.0 W/m2 CLR
11:56 13.8 °F 7.1 °F 1024.3 in North 13.0 mph 13.0 mph 64 % 0.0 in 536.0 W/m2 CLR
12:01 13.8 °F 6.2 °F 1024.3 in North 5.6 mph 5.6 mph 60 % 0.0 in 545.0 W/m2 CLR
12:06 13.8 °F 6.6 °F 1024.3 in NNE 5.6 mph 5.6 mph 62 % 0.0 in 538.0 W/m2 CLR
12:11 13.8 °F 6.4 °F 1024.3 in North 5.6 mph 5.6 mph 61 % 0.0 in 555.0 W/m2 CLR
12:16 13.9 °F 6.2 °F 1024.3 in Calm     60 % 0.0 in 561.0 W/m2 CLR
12:21 14.2 °F 7.2 °F 1024.3 in NNE 8.0 mph 8.0 mph 63 % 0.0 in 564.0 W/m2 CLR
12:26 14.1 °F 6.2 °F 1024.3 in North 5.6 mph 5.6 mph 59 % 0.0 in 570.0 W/m2 CLR
12:31 14.1 °F 6.7 °F 1024.3 in North 5.6 mph 5.6 mph 61 % 0.0 in 573.0 W/m2 CLR
12:36 14.1 °F 6.7 °F 1024.3 in Calm     61 % 0.0 in 577.0 W/m2 CLR
12:41 14.3 °F 7.8 °F 1024.3 in ENE 5.6 mph 5.6 mph 65 % 0.0 in 580.0 W/m2 CLR
12:46 14.4 °F 7.5 °F 1024.3 in NE 5.6 mph 5.6 mph 63 % 0.0 in 582.0 W/m2 CLR
12:51 14.4 °F 7.2 °F 1024.6 in NE 5.6 mph 5.6 mph 62 % 0.0 in 584.0 W/m2 CLR
12:56 14.3 °F 6.9 °F 1024.6 in ENE 7.4 mph 7.4 mph 61 % 0.0 in 585.0 W/m2 CLR
13:01 14.2 °F 7.3 °F 1024.3 in East 7.4 mph 7.4 mph 63 % 0.0 in 591.0 W/m2 CLR
13:06 14.3 °F 7.2 °F 1024.3 in ENE 8.0 mph 8.0 mph 62 % 0.0 in 589.0 W/m2 CLR
13:11 14.4 °F 7.5 °F 1024.3 in ENE 11.3 mph 11.3 mph 63 % 0.0 in 591.0 W/m2 CLR
13:16 14.5 °F 7.1 °F 1024.3 in East 3.7 mph 3.7 mph 61 % 0.0 in 591.0 W/m2 CLR
13:21 14.7 °F 7.7 °F 1024.3 in East 7.4 mph 7.4 mph 63 % 0.0 in 591.0 W/m2 CLR
13:26 14.6 °F 7.4 °F 1024.3 in Calm     62 % 0.0 in 591.0 W/m2 CLR
13:31 14.6 °F 6.9 °F 1024.3 in East 11.1 mph 11.1 mph 60 % 0.0 in 589.0 W/m2 CLR
13:36 14.6 °F 7.3 °F 1024.3 in NE 13.0 mph 13.0 mph 62 % 0.0 in 589.0 W/m2 CLR
13:41 14.6 °F 7.7 °F 1024.3 in ENE 8.0 mph 8.0 mph 63 % 0.0 in 587.0 W/m2 CLR
13:46 14.7 °F 7.5 °F 1024.3 in ENE 9.3 mph 9.3 mph 62 % 0.0 in 585.0 W/m2 CLR
13:51 14.8 °F 6.8 °F 1024.3 in ENE 13.0 mph 13.0 mph 59 % 0.0 in 584.0 W/m2 CLR
13:56 14.8 °F 6.8 °F 1024.3 in ENE 13.0 mph 13.0 mph 59 % 0.0 in 582.0 W/m2 CLR
14:01 14.8 °F 7.4 °F 1024.3 in ENE 8.0 mph 8.0 mph 61 % 0.0 in 578.0 W/m2 CLR
14:06 14.9 °F 7.2 °F 1024.3 in ENE 8.0 mph 8.0 mph 60 % 0.0 in 578.0 W/m2 CLR
14:11 14.9 °F 6.4 °F 1024.3 in East 7.4 mph 7.4 mph 57 % 0.0 in 577.0 W/m2 CLR
14:16 14.9 °F 6.7 °F 1024.3 in NE 9.7 mph 9.7 mph 58 % 0.0 in 571.0 W/m2 CLR
14:21 14.9 °F 6.9 °F 1024.3 in ENE 9.3 mph 9.3 mph 59 % 0.0 in 545.0 W/m2 CLR
14:26 15.0 °F 7.3 °F 1024.3 in East 9.3 mph 9.3 mph 60 % 0.0 in 552.0 W/m2 CLR
14:31 15.1 °F 7.1 °F 1024.3 in NE 11.1 mph 11.1 mph 59 % 0.0 in 497.0 W/m2 CLR
14:36 15.0 °F 7.1 °F 1024.3 in NE 9.3 mph 9.3 mph 59 % 0.0 in 536.0 W/m2 CLR
14:41 15.0 °F 7.3 °F 1024.3 in NNE 7.4 mph 7.4 mph 60 % 0.0 in 540.0 W/m2 CLR
14:46 15.1 °F 7.8 °F 1024.3 in NE 9.3 mph 9.3 mph 62 % 0.0 in 443.0 W/m2 CLR
14:51 15.0 °F 7.3 °F 1024.3 in ENE 5.6 mph 5.6 mph 60 % 0.0 in 446.0 W/m2 CLR
14:56 15.2 °F 7.4 °F 1024.3 in ENE 9.3 mph 9.3 mph 60 % 0.0 in 485.0 W/m2 CLR
15:01 15.3 °F 7.6 °F 1024.3 in NNE 5.6 mph 5.6 mph 60 % 0.0 in 533.0 W/m2 CLR
15:06 15.3 °F 7.6 °F 1024.3 in NNE 11.1 mph 11.1 mph 60 % 0.0 in 515.0 W/m2 CLR
15:11 15.2 °F 7.5 °F 1024.3 in NE 7.4 mph 7.4 mph 60 % 0.0 in 497.0 W/m2 CLR
15:16 15.3 °F 7.6 °F 1024.3 in NE 11.1 mph 11.1 mph 60 % 0.0 in 485.0 W/m2 CLR
15:21 15.3 °F 7.8 °F 1024.3 in NNE 9.3 mph 9.3 mph 61 % 0.0 in 462.0 W/m2 CLR
15:26 15.3 °F 7.3 °F 1024.3 in NE 9.3 mph 9.3 mph 59 % 0.0 in 461.0 W/m2 CLR
15:31 15.3 °F 7.3 °F 1024.3 in NE 7.4 mph 7.4 mph 59 % 0.0 in 450.0 W/m2 CLR
15:36 15.4 °F 7.4 °F 1024.3 in NE 7.4 mph 7.4 mph 59 % 0.0 in 438.0 W/m2 CLR
15:41 15.4 °F 7.4 °F 1024.3 in NE 9.3 mph 9.3 mph 59 % 0.0 in 429.0 W/m2 CLR
15:46 15.5 °F 7.3 °F 1024.3 in NE 3.2 mph 3.2 mph 58 % 0.0 in 413.0 W/m2 CLR
15:51 15.6 °F 7.4 °F 1024.3 in ESE 5.6 mph 5.6 mph 58 % 0.0 in 403.0 W/m2 CLR
15:56 15.7 °F 7.2 °F 1024.6 in ENE 14.8 mph 14.8 mph 57 % 0.0 in 392.0 W/m2 CLR
16:01 15.5 °F 7.3 °F 1024.6 in ENE 14.8 mph 14.8 mph 58 % 0.0 in 381.0 W/m2 CLR
16:06 15.4 °F 7.7 °F 1024.6 in NNE 9.3 mph 9.3 mph 60 % 0.0 in 367.0 W/m2 CLR
16:11 15.3 °F 7.6 °F 1024.6 in ENE 11.3 mph 11.3 mph 60 % 0.0 in 343.0 W/m2 CLR
16:16 15.4 °F 7.4 °F 1024.6 in NE 8.0 mph 8.0 mph 59 % 0.0 in 334.0 W/m2 CLR
16:21 15.5 °F 7.5 °F 1024.6 in Calm     59 % 0.0 in 334.0 W/m2 CLR
16:26 15.6 °F 7.1 °F 1024.6 in ENE 11.1 mph 11.1 mph 57 % 0.0 in 323.0 W/m2 CLR
16:31 15.7 °F 7.7 °F 1024.6 in East 3.7 mph 3.7 mph 59 % 0.0 in 311.0 W/m2 CLR
16:36 15.7 °F 7.7 °F 1024.6 in ENE 13.0 mph 13.0 mph 59 % 0.0 in 269.0 W/m2 CLR
16:41 15.6 °F 7.6 °F 1024.6 in NE 7.4 mph 7.4 mph 59 % 0.0 in 77.0 W/m2 CLR
16:46 15.3 °F 7.3 °F 1024.6 in ENE 9.3 mph 9.3 mph 59 % 0.0 in 120.0 W/m2 CLR
16:51 15.1 °F 7.4 °F 1024.9 in East 7.4 mph 7.4 mph 60 % 0.0 in 111.0 W/m2 CLR
16:56 15.1 °F 7.3 °F 1024.9 in East 7.4 mph 7.4 mph 60 % 0.0 in 178.0 W/m2 CLR
17:01 15.1 °F 7.6 °F 1024.9 in NE 5.6 mph 5.6 mph 61 % 0.0 in 171.0 W/m2 CLR
17:06 15.1 °F 7.7 °F 1024.9 in ENE 7.4 mph 7.4 mph 61 % 0.0 in 204.0 W/m2 CLR
17:11 15.2 °F 7.7 °F 1024.9 in Calm     61 % 0.0 in 162.0 W/m2 CLR
17:16 15.2 °F 7.5 °F 1024.9 in ENE 5.6 mph 5.6 mph 60 % 0.0 in 139.0 W/m2 CLR
17:21 15.2 °F 7.5 °F 1025.3 in East 5.6 mph 5.6 mph 60 % 0.0 in 104.0 W/m2 CLR
17:26 15.1 °F 7.4 °F 1024.9 in ENE 11.1 mph 11.1 mph 60 % 0.0 in 81.0 W/m2 CLR
17:31 15.1 °F 7.6 °F 1025.3 in East 5.6 mph 5.6 mph 61 % 0.0 in 60.0 W/m2 FEW
17:36 15.0 °F 7.8 °F 1025.3 in ESE 9.3 mph 9.3 mph 62 % 0.0 in 53.0 W/m2 SCT
17:41 14.9 °F 7.9 °F 1025.3 in East 11.1 mph 11.1 mph 63 % 0.0 in 46.0 W/m2 SCT
17:46 14.8 °F 7.8 °F 1025.3 in ENE 7.4 mph 7.4 mph 63 % 0.0 in 39.0 W/m2 BKN
17:51 14.7 °F 8.0 °F 1025.3 in East 5.6 mph 5.6 mph 64 % 0.0 in 35.0 W/m2 BKN
17:56 14.6 °F 8.1 °F 1025.3 in Calm   0.8 mph 65 % 0.0 in 28.0 W/m2 BKN
18:01 14.4 °F 7.9 °F 1025.6 in Calm     65 % 0.0 in 25.0 W/m2 BKN
18:06 14.3 °F 8.1 °F 1025.6 in Calm     66 % 0.0 in 21.0 W/m2 BKN
18:11 14.2 °F 7.9 °F 1025.6 in Calm     66 % 0.0 in 18.0 W/m2 BKN
18:16 14.1 °F 8.1 °F 1026.0 in East 5.6 mph 5.6 mph 67 % 0.0 in 12.0 W/m2 BKN
18:21 13.9 °F 7.9 °F 1026.0 in Calm     67 % 0.0 in 11.0 W/m2 BKN
18:26 13.8 °F 8.0 °F 1026.0 in Calm     68 % 0.0 in 7.0 W/m2 BKN
18:31 13.8 °F 8.2 °F 1026.0 in Calm     69 % 0.0 in 0.0 W/m2 OVC
18:36 13.7 °F 8.1 °F 1026.3 in Calm     69 % 0.0 in 0.0 W/m2 OVC
18:41 13.6 °F 8.2 °F 1026.3 in Calm     70 % 0.0 in 0.0 W/m2 OVC
18:46 13.4 °F 8.2 °F 1026.3 in Calm     71 % 0.0 in 0.0 W/m2 CLR
18:51 13.3 °F 8.3 °F 1026.3 in Calm     72 % 0.0 in 0.0 W/m2 CLR
18:56 13.2 °F 8.2 °F 1026.3 in Calm     72 % 0.0 in 0.0 W/m2 CLR
19:02 13.1 °F 8.3 °F 1026.6 in Calm     73 % 0.0 in 0.0 W/m2 CLR
19:07 13.0 °F 8.3 °F 1026.6 in Calm     73 % 0.0 in 0.0 W/m2 CLR
19:11 12.9 °F 8.4 °F 1026.6 in Calm     74 % 0.0 in 0.0 W/m2 CLR
19:17 12.7 °F 8.3 °F 1026.6 in Calm     75 % 0.0 in 0.0 W/m2 CLR
19:22 12.4 °F 8.3 °F 1027.0 in Calm     76 % 0.0 in 0.0 W/m2 CLR
19:27 12.3 °F 8.2 °F 1027.0 in Calm     76 % 0.0 in 0.0 W/m2 CLR
19:32 12.1 °F 8.2 °F 1027.0 in Calm     77 % 0.0 in 0.0 W/m2 CLR
19:37 11.9 °F 8.2 °F 1027.0 in Calm     78 % 0.0 in 0.0 W/m2 CLR
19:42 11.7 °F 8.2 °F 1027.0 in Calm     79 % 0.0 in 0.0 W/m2 CLR
19:47 11.4 °F 8.1 °F 1027.0 in Calm     80 % 0.0 in 0.0 W/m2 CLR
19:52 11.2 °F 7.9 °F 1027.0 in Calm     80 % 0.0 in 0.0 W/m2 CLR
19:57 11.0 °F 7.9 °F 1027.3 in Calm     81 % 0.0 in 0.0 W/m2 CLR
20:02 10.8 °F 7.8 °F 1027.3 in Calm     82 % 0.0 in 0.0 W/m2 CLR
20:07 10.4 °F 7.7 °F 1027.3 in Calm     83 % 0.0 in 0.0 W/m2 CLR
20:12 10.1 °F 7.5 °F 1027.3 in Calm     84 % 0.0 in 0.0 W/m2 CLR
20:17 9.8 °F 7.4 °F 1027.7 in Calm     85 % 0.0 in 0.0 W/m2 CLR
20:22 9.6 °F 7.2 °F 1027.7 in Calm     85 % 0.0 in 0.0 W/m2 CLR
20:27 9.3 °F 7.1 °F 1027.7 in Calm     86 % 0.0 in 0.0 W/m2 CLR
20:32 9.2 °F 7.0 °F 1027.7 in Calm     86 % 0.0 in 0.0 W/m2 CLR
20:37 9.1 °F 6.9 °F 1027.7 in Calm     86 % 0.0 in 0.0 W/m2 CLR
20:42 9.0 °F 6.9 °F 1027.7 in Calm     87 % 0.0 in 0.0 W/m2 CLR
20:47 8.9 °F 6.8 °F 1027.7 in Calm     87 % 0.0 in 0.0 W/m2 CLR
20:52 8.7 °F 6.7 °F 1028.0 in Calm     87 % 0.0 in 0.0 W/m2 CLR
20:57 8.6 °F 6.5 °F 1028.0 in Calm     87 % 0.0 in 0.0 W/m2 CLR
21:02 8.3 °F 6.4 °F 1028.0 in Calm     88 % 0.0 in 0.0 W/m2 CLR
21:07 8.1 °F 6.2 °F 1028.0 in Calm     88 % 0.0 in 0.0 W/m2 CLR
21:12 8.1 °F 6.3 °F 1028.3 in Calm     89 % 0.0 in 0.0 W/m2 CLR
21:17 8.1 °F 6.6 °F 1028.3 in Calm     90 % 0.0 in 0.0 W/m2 CLR
21:22 7.9 °F 6.2 °F 1028.3 in Calm     89 % 0.0 in 0.0 W/m2 CLR
21:27 7.7 °F 6.0 °F 1028.3 in Calm     89 % 0.0 in 0.0 W/m2 CLR
21:32 7.5 °F 5.8 °F 1028.3 in Calm     89 % 0.0 in 0.0 W/m2 CLR
21:37 7.3 °F 5.6 °F 1028.7 in Calm     89 % 0.0 in 0.0 W/m2 CLR
21:42 7.2 °F 5.5 °F 1028.7 in Calm     89 % 0.0 in 0.0 W/m2 CLR
21:47 7.1 °F 5.5 °F 1028.7 in Calm     90 % 0.0 in 0.0 W/m2 CLR
21:52 7.0 °F 5.4 °F 1028.7 in Calm     90 % 0.0 in 0.0 W/m2 CLR
21:57 6.8 °F 5.3 °F 1028.7 in Calm     90 % 0.0 in 0.0 W/m2 CLR
22:02 6.7 °F 5.2 °F 1028.7 in Calm     90 % 0.0 in 0.0 W/m2 CLR
22:07 6.6 °F 5.1 °F 1029.0 in Calm     90 % 0.0 in 0.0 W/m2 CLR
22:12 6.4 °F 5.0 °F 1028.7 in Calm     91 % 0.0 in 0.0 W/m2 CLR
22:17 6.4 °F 5.0 °F 1029.0 in Calm     91 % 0.0 in 0.0 W/m2 CLR
22:22 6.3 °F 4.9 °F 1029.0 in Calm     91 % 0.0 in 0.0 W/m2 CLR
22:27 6.2 °F 4.8 °F 1029.0 in Calm     91 % 0.0 in 0.0 W/m2 CLR
22:32 6.2 °F 5.0 °F 1029.0 in Calm     92 % 0.0 in 0.0 W/m2 CLR
22:37 6.1 °F 4.8 °F 1029.0 in Calm     91 % 0.0 in 0.0 W/m2 CLR
22:42 6.0 °F 4.7 °F 1029.0 in Calm     91 % 0.0 in 0.0 W/m2 CLR
22:47 5.8 °F 4.5 °F 1029.3 in Calm     91 % 0.0 in 0.0 W/m2 CLR
22:52 5.8 °F 4.4 °F 1029.3 in Calm     91 % 0.0 in 0.0 W/m2 CLR
22:57 5.7 °F 4.4 °F 1029.3 in Calm     91 % 0.0 in 0.0 W/m2 CLR
23:02 5.6 °F 4.4 °F 1029.3 in Calm     92 % 0.0 in 0.0 W/m2 CLR
23:07 5.6 °F 4.3 °F 1029.3 in Calm     92 % 0.0 in 0.0 W/m2 CLR
23:12 5.5 °F 4.3 °F 1029.3 in Calm     92 % 0.0 in 0.0 W/m2 CLR
23:17 5.4 °F 4.1 °F 1029.3 in Calm     91 % 0.0 in 0.0 W/m2 CLR
23:22 5.3 °F 4.1 °F 1029.3 in Calm     92 % 0.0 in 0.0 W/m2 CLR
23:27 5.3 °F 4.1 °F 1029.3 in Calm     92 % 0.0 in 0.0 W/m2 CLR
23:32 5.3 °F 4.1 °F 1029.3 in Calm     92 % 0.0 in 0.0 W/m2 CLR
23:37 5.2 °F 4.0 °F 1029.3 in Calm     92 % 0.0 in 0.0 W/m2 CLR
23:42 5.1 °F 3.9 °F 1029.7 in Calm     92 % 0.0 in 0.0 W/m2 CLR
23:47 4.9 °F 3.7 °F 1029.7 in Calm     92 % 0.0 in 0.0 W/m2 CLR
23:52 4.8 °F 3.6 °F 1029.7 in Calm     92 % 0.0 in 0.0 W/m2 CLR
23:57 4.7 °F 3.6 °F 1029.7 in Calm     92 % 0.0 in 0.0 W/m2 CLR
Lo Temps de Massalio
Compliments of Weather Underground - 1.25 mb